CFG2553 LEAS-LEMD
Flight info
| Callsign | CFG2553 |
|---|---|
| Flight time | 0h 49m |
| Altitude | 30000 |
| Route | KUVAN Y27 LARVO ZMR |
| Aircraft | A320/M-SDE3FGHIRWY/C |
Departure
| Time | 2026-04-17 09:38 |
|---|---|
| Airport | Asturias Airport (LEAS) |
Arrival
| Time | 2026-04-17 10:28 |
|---|---|
| Airport | Adolfo Suárez Madrid–Barajas Airport (LEMD) |
| Time | Latitude | Longitude | Altitude | Speed | Heading |
|---|---|---|---|---|---|
| 2026-04-17 09:16 | 43.56009 | -6.03235 | 383 ft | 0 kts | 243° |
| 2026-04-17 09:33 | 43.56015 | -6.03256 | 383 ft | 4 kts | 309° |
| 2026-04-17 09:33 | 43.56045 | -6.03250 | 383 ft | 6 kts | 20° |
| 2026-04-17 09:34 | 43.56092 | -6.03223 | 383 ft | 9 kts | 23° |
| 2026-04-17 09:34 | 43.56119 | -6.03153 | 384 ft | 10 kts | 103° |
| 2026-04-17 09:34 | 43.56096 | -6.03054 | 384 ft | 12 kts | 108° |
| 2026-04-17 09:34 | 43.56065 | -6.02923 | 384 ft | 17 kts | 108° |
| 2026-04-17 09:35 | 43.56030 | -6.02774 | 384 ft | 16 kts | 107° |
| 2026-04-17 09:35 | 43.55999 | -6.02639 | 384 ft | 14 kts | 108° |
| 2026-04-17 09:35 | 43.55970 | -6.02517 | 384 ft | 13 kts | 108° |
| 2026-04-17 09:35 | 43.55947 | -6.02405 | 384 ft | 11 kts | 98° |
| 2026-04-17 09:36 | 43.55962 | -6.02311 | 385 ft | 9 kts | 65° |
| 2026-04-17 09:36 | 43.55999 | -6.02228 | 392 ft | 9 kts | 44° |
| 2026-04-17 09:36 | 43.56018 | -6.02208 | 399 ft | 0 kts | 33° |
| 2026-04-17 09:36 | 43.56032 | -6.02198 | 398 ft | 5 kts | 26° |
| 2026-04-17 09:37 | 43.56060 | -6.02200 | 402 ft | 4 kts | 316° |
| 2026-04-17 09:37 | 43.56070 | -6.02243 | 399 ft | 10 kts | 287° |
| 2026-04-17 09:37 | 43.56157 | -6.02618 | 400 ft | 79 kts | 288° |
| 2026-04-17 09:37 | 43.56398 | -6.03636 | 402 ft | 142 kts | 288° |
| 2026-04-17 09:38 | 43.56737 | -6.05059 | 853 ft | 155 kts | 289° |
| 2026-04-17 09:38 | 43.57075 | -6.06474 | 1586 ft | 157 kts | 287° |
| 2026-04-17 09:38 | 43.57408 | -6.07919 | 2245 ft | 161 kts | 289° |
| 2026-04-17 09:38 | 43.57786 | -6.09482 | 2589 ft | 183 kts | 289° |
| 2026-04-17 09:39 | 43.58202 | -6.11241 | 3013 ft | 201 kts | 288° |
| 2026-04-17 09:39 | 43.58649 | -6.13173 | 3446 ft | 222 kts | 287° |
| 2026-04-17 09:39 | 43.59135 | -6.15232 | 4230 ft | 226 kts | 285° |
| 2026-04-17 09:39 | 43.59193 | -6.17345 | 5107 ft | 224 kts | 250° |
| 2026-04-17 09:40 | 43.58264 | -6.19009 | 5951 ft | 222 kts | 211° |
| 2026-04-17 09:40 | 43.56847 | -6.19846 | 6819 ft | 223 kts | 198° |
| 2026-04-17 09:40 | 43.55339 | -6.20401 | 7687 ft | 224 kts | 194° |
| 2026-04-17 09:40 | 43.53812 | -6.20910 | 8531 ft | 226 kts | 195° |
| 2026-04-17 09:41 | 43.52284 | -6.21444 | 9391 ft | 228 kts | 196° |
| 2026-04-17 09:41 | 43.50749 | -6.22022 | 10237 ft | 230 kts | 197° |
| 2026-04-17 09:41 | 43.49230 | -6.22631 | 11016 ft | 232 kts | 199° |
| 2026-04-17 09:41 | 43.47677 | -6.23282 | 11812 ft | 234 kts | 200° |
| 2026-04-17 09:42 | 43.46059 | -6.23776 | 12449 ft | 248 kts | 192° |
| 2026-04-17 09:42 | 43.44278 | -6.24179 | 12773 ft | 271 kts | 192° |
| 2026-04-17 09:42 | 43.42330 | -6.24621 | 13079 ft | 295 kts | 192° |
| 2026-04-17 09:42 | 43.40217 | -6.25101 | 13336 ft | 319 kts | 192° |
| 2026-04-17 09:43 | 43.37950 | -6.25615 | 13573 ft | 341 kts | 192° |
| 2026-04-17 09:43 | 43.35564 | -6.26154 | 14101 ft | 352 kts | 192° |
| 2026-04-17 09:43 | 43.33134 | -6.26702 | 14745 ft | 357 kts | 192° |
| 2026-04-17 09:43 | 43.30670 | -6.27256 | 15455 ft | 360 kts | 193° |
| 2026-04-17 09:44 | 43.28192 | -6.27817 | 16155 ft | 362 kts | 193° |
| 2026-04-17 09:44 | 43.25694 | -6.28384 | 16850 ft | 365 kts | 193° |
| 2026-04-17 09:44 | 43.23190 | -6.28953 | 17549 ft | 367 kts | 193° |
| 2026-04-17 09:44 | 43.20659 | -6.29528 | 18217 ft | 370 kts | 193° |
| 2026-04-17 09:45 | 43.18111 | -6.30108 | 18821 ft | 373 kts | 193° |
| 2026-04-17 09:45 | 43.15535 | -6.30694 | 19435 ft | 376 kts | 193° |
| 2026-04-17 09:45 | 43.12969 | -6.31172 | 20037 ft | 381 kts | 187° |
| 2026-04-17 09:45 | 43.10295 | -6.31035 | 20655 ft | 390 kts | 176° |
| 2026-04-17 09:46 | 43.07622 | -6.30173 | 21240 ft | 399 kts | 167° |
| 2026-04-17 09:46 | 43.04966 | -6.28983 | 21788 ft | 403 kts | 166° |
| 2026-04-17 09:46 | 43.02295 | -6.27791 | 22352 ft | 405 kts | 167° |
| 2026-04-17 09:46 | 42.99602 | -6.26592 | 22904 ft | 409 kts | 167° |
| 2026-04-17 09:47 | 42.96894 | -6.25384 | 23444 ft | 412 kts | 167° |
| 2026-04-17 09:47 | 42.94162 | -6.24166 | 23947 ft | 414 kts | 167° |
| 2026-04-17 09:47 | 42.91411 | -6.22944 | 24398 ft | 417 kts | 167° |
| 2026-04-17 09:47 | 42.88648 | -6.21722 | 24806 ft | 418 kts | 167° |
| 2026-04-17 09:48 | 42.85872 | -6.20501 | 25232 ft | 420 kts | 167° |
| 2026-04-17 09:48 | 42.83079 | -6.19271 | 25608 ft | 423 kts | 166° |
| 2026-04-17 09:48 | 42.80278 | -6.18031 | 26040 ft | 425 kts | 166° |
| 2026-04-17 09:48 | 42.77462 | -6.16779 | 26453 ft | 426 kts | 166° |
| 2026-04-17 09:49 | 42.74642 | -6.15532 | 26840 ft | 428 kts | 166° |
| 2026-04-17 09:49 | 42.71792 | -6.14288 | 27226 ft | 430 kts | 167° |
| 2026-04-17 09:49 | 42.68972 | -6.13072 | 27603 ft | 431 kts | 166° |
| 2026-04-17 09:49 | 42.66072 | -6.11829 | 27977 ft | 433 kts | 167° |
| 2026-04-17 09:50 | 42.63193 | -6.10597 | 28343 ft | 435 kts | 167° |
| 2026-04-17 09:50 | 42.60300 | -6.09359 | 28687 ft | 437 kts | 167° |
| 2026-04-17 09:50 | 42.57430 | -6.08127 | 29003 ft | 439 kts | 167° |
| 2026-04-17 09:50 | 42.54481 | -6.06862 | 29317 ft | 441 kts | 167° |
| 2026-04-17 09:51 | 42.51585 | -6.05620 | 29614 ft | 442 kts | 166° |
| 2026-04-17 09:51 | 42.48643 | -6.04361 | 29903 ft | 444 kts | 166° |
| 2026-04-17 09:51 | 42.45656 | -6.03084 | 30150 ft | 445 kts | 167° |
| 2026-04-17 09:51 | 42.42724 | -6.01826 | 30208 ft | 439 kts | 166° |
| 2026-04-17 09:52 | 42.36986 | -5.99362 | 30212 ft | 435 kts | 166° |
| 2026-04-17 09:52 | 42.31232 | -5.96900 | 30204 ft | 433 kts | 166° |
| 2026-04-17 09:53 | 42.25480 | -5.94442 | 30201 ft | 433 kts | 166° |
| 2026-04-17 09:53 | 42.19728 | -5.91996 | 30209 ft | 434 kts | 166° |
| 2026-04-17 09:54 | 42.13967 | -5.89557 | 30205 ft | 434 kts | 166° |
| 2026-04-17 09:54 | 42.08207 | -5.87121 | 30202 ft | 434 kts | 166° |
| 2026-04-17 09:55 | 42.02449 | -5.84683 | 30188 ft | 433 kts | 166° |
| 2026-04-17 09:55 | 41.96727 | -5.82276 | 30190 ft | 433 kts | 166° |
| 2026-04-17 09:56 | 41.90972 | -5.79848 | 30185 ft | 433 kts | 166° |
| 2026-04-17 09:56 | 41.85220 | -5.77430 | 30184 ft | 433 kts | 166° |
| 2026-04-17 09:57 | 41.79464 | -5.75009 | 30175 ft | 433 kts | 166° |
| 2026-04-17 09:57 | 41.73712 | -5.72605 | 30180 ft | 433 kts | 166° |
| 2026-04-17 09:58 | 41.67960 | -5.70197 | 30170 ft | 433 kts | 166° |
| 2026-04-17 09:58 | 41.62208 | -5.67796 | 30160 ft | 434 kts | 166° |
| 2026-04-17 09:59 | 41.56439 | -5.65382 | 30166 ft | 435 kts | 164° |
| 2026-04-17 09:59 | 41.51080 | -5.61498 | 30167 ft | 445 kts | 145° |
| 2026-04-17 10:00 | 41.46463 | -5.55936 | 30166 ft | 448 kts | 141° |
| 2026-04-17 10:00 | 41.41903 | -5.50363 | 30158 ft | 448 kts | 141° |
| 2026-04-17 10:01 | 41.37270 | -5.44720 | 30165 ft | 448 kts | 141° |
| 2026-04-17 10:01 | 41.32697 | -5.39151 | 30168 ft | 449 kts | 141° |
| 2026-04-17 10:02 | 41.28092 | -5.33545 | 30171 ft | 449 kts | 141° |
| 2026-04-17 10:02 | 41.23478 | -5.27941 | 30171 ft | 449 kts | 141° |
| 2026-04-17 10:03 | 41.18861 | -5.22356 | 30167 ft | 450 kts | 140° |
| 2026-04-17 10:03 | 41.14226 | -5.16770 | 30172 ft | 450 kts | 140° |
| 2026-04-17 10:04 | 41.09591 | -5.11183 | 30175 ft | 450 kts | 140° |
| 2026-04-17 10:04 | 41.04952 | -5.05593 | 30165 ft | 450 kts | 140° |
| 2026-04-17 10:05 | 41.00313 | -5.00023 | 30160 ft | 450 kts | 140° |
| 2026-04-17 10:05 | 40.95667 | -4.94452 | 29926 ft | 451 kts | 141° |
| 2026-04-17 10:06 | 40.93337 | -4.91663 | 29643 ft | 453 kts | 141° |
| 2026-04-17 10:06 | 40.91000 | -4.88874 | 29376 ft | 453 kts | 141° |
| 2026-04-17 10:06 | 40.88650 | -4.86075 | 29099 ft | 454 kts | 141° |
| 2026-04-17 10:06 | 40.86312 | -4.83288 | 28601 ft | 451 kts | 140° |
| 2026-04-17 10:07 | 40.83995 | -4.80525 | 27832 ft | 447 kts | 140° |
| 2026-04-17 10:07 | 40.81690 | -4.77779 | 27093 ft | 444 kts | 140° |
| 2026-04-17 10:07 | 40.79409 | -4.75066 | 26364 ft | 440 kts | 140° |
| 2026-04-17 10:07 | 40.77141 | -4.72369 | 25648 ft | 437 kts | 140° |
| 2026-04-17 10:08 | 40.74888 | -4.69692 | 24939 ft | 434 kts | 140° |
| 2026-04-17 10:08 | 40.72648 | -4.67037 | 24237 ft | 432 kts | 140° |
| 2026-04-17 10:08 | 40.70418 | -4.64398 | 23501 ft | 430 kts | 140° |
| 2026-04-17 10:08 | 40.68199 | -4.61775 | 22800 ft | 426 kts | 140° |
| 2026-04-17 10:09 | 40.66010 | -4.59187 | 22165 ft | 421 kts | 140° |
| 2026-04-17 10:09 | 40.63869 | -4.56659 | 21568 ft | 417 kts | 139° |
| 2026-04-17 10:09 | 40.61785 | -4.54030 | 20982 ft | 415 kts | 133° |
| 2026-04-17 10:09 | 40.59813 | -4.51175 | 20523 ft | 417 kts | 134° |
| 2026-04-17 10:10 | 40.57861 | -4.48351 | 20040 ft | 417 kts | 133° |
| 2026-04-17 10:10 | 40.55939 | -4.45584 | 19555 ft | 415 kts | 133° |
| 2026-04-17 10:10 | 40.53990 | -4.42790 | 19085 ft | 413 kts | 133° |
| 2026-04-17 10:11 | 40.50131 | -4.37264 | 18092 ft | 409 kts | 133° |
| 2026-04-17 10:11 | 40.48226 | -4.34538 | 17630 ft | 404 kts | 133° |
| 2026-04-17 10:11 | 40.46324 | -4.31820 | 17154 ft | 403 kts | 133° |
| 2026-04-17 10:11 | 40.44441 | -4.29128 | 16685 ft | 398 kts | 133° |
| 2026-04-17 10:12 | 40.42573 | -4.26455 | 16225 ft | 397 kts | 133° |
| 2026-04-17 10:12 | 40.40707 | -4.23790 | 15768 ft | 394 kts | 133° |
| 2026-04-17 10:12 | 40.38857 | -4.21155 | 15317 ft | 391 kts | 133° |
| 2026-04-17 10:12 | 40.37021 | -4.18538 | 14860 ft | 387 kts | 133° |
| 2026-04-17 10:13 | 40.35286 | -4.15869 | 14413 ft | 385 kts | 126° |
| 2026-04-17 10:13 | 40.33945 | -4.12856 | 13965 ft | 381 kts | 114° |
| 2026-04-17 10:13 | 40.33039 | -4.09600 | 13528 ft | 379 kts | 108° |
| 2026-04-17 10:13 | 40.32229 | -4.06318 | 12908 ft | 379 kts | 108° |
| 2026-04-17 10:14 | 40.31690 | -4.04144 | 12599 ft | 375 kts | 108° |
| 2026-04-17 10:14 | 40.30884 | -4.00915 | 12197 ft | 372 kts | 108° |
| 2026-04-17 10:14 | 40.30074 | -3.97701 | 11795 ft | 369 kts | 109° |
| 2026-04-17 10:14 | 40.29268 | -3.94521 | 11382 ft | 366 kts | 109° |
| 2026-04-17 10:15 | 40.28468 | -3.91376 | 10970 ft | 364 kts | 109° |
| 2026-04-17 10:15 | 40.27682 | -3.88266 | 10698 ft | 353 kts | 109° |
| 2026-04-17 10:15 | 40.26933 | -3.85289 | 10571 ft | 337 kts | 109° |
| 2026-04-17 10:15 | 40.26221 | -3.82466 | 10459 ft | 323 kts | 109° |
| 2026-04-17 10:16 | 40.25529 | -3.79733 | 10336 ft | 310 kts | 109° |
| 2026-04-17 10:16 | 40.24858 | -3.77090 | 10127 ft | 302 kts | 109° |
| 2026-04-17 10:16 | 40.24203 | -3.74515 | 10050 ft | 297 kts | 109° |
| 2026-04-17 10:16 | 40.23548 | -3.71948 | 9957 ft | 297 kts | 109° |
| 2026-04-17 10:17 | 40.22897 | -3.69384 | 9638 ft | 295 kts | 109° |
| 2026-04-17 10:17 | 40.22249 | -3.66830 | 9352 ft | 294 kts | 109° |
| 2026-04-17 10:17 | 40.21605 | -3.64307 | 9071 ft | 293 kts | 109° |
| 2026-04-17 10:17 | 40.20959 | -3.61817 | 8796 ft | 292 kts | 109° |
| 2026-04-17 10:18 | 40.20296 | -3.59286 | 8471 ft | 289 kts | 109° |
| 2026-04-17 10:18 | 40.19653 | -3.56837 | 8085 ft | 287 kts | 109° |
| 2026-04-17 10:18 | 40.19007 | -3.54378 | 7695 ft | 285 kts | 110° |
| 2026-04-17 10:18 | 40.18362 | -3.51925 | 7301 ft | 284 kts | 110° |
| 2026-04-17 10:19 | 40.17721 | -3.49491 | 6902 ft | 283 kts | 110° |
| 2026-04-17 10:19 | 40.17081 | -3.47069 | 6583 ft | 282 kts | 110° |
| 2026-04-17 10:19 | 40.16442 | -3.44648 | 6300 ft | 281 kts | 110° |
| 2026-04-17 10:19 | 40.15810 | -3.42243 | 6047 ft | 278 kts | 110° |
| 2026-04-17 10:20 | 40.15467 | -3.39780 | 5805 ft | 277 kts | 88° |
| 2026-04-17 10:20 | 40.15931 | -3.37360 | 5642 ft | 276 kts | 63° |
| 2026-04-17 10:20 | 40.17062 | -3.35428 | 5601 ft | 260 kts | 40° |
| 2026-04-17 10:20 | 40.18565 | -3.34291 | 5563 ft | 243 kts | 17° |
| 2026-04-17 10:21 | 40.20179 | -3.33957 | 5510 ft | 229 kts | 356° |
| 2026-04-17 10:21 | 40.21720 | -3.34350 | 5462 ft | 224 kts | 336° |
| 2026-04-17 10:21 | 40.23053 | -3.35378 | 5399 ft | 223 kts | 317° |
| 2026-04-17 10:21 | 40.24167 | -3.36786 | 5374 ft | 223 kts | 317° |
| 2026-04-17 10:22 | 40.25466 | -3.37904 | 5331 ft | 225 kts | 334° |
| 2026-04-17 10:22 | 40.26961 | -3.38528 | 5282 ft | 226 kts | 350° |
| 2026-04-17 10:22 | 40.28515 | -3.38802 | 5239 ft | 226 kts | 351° |
| 2026-04-17 10:22 | 40.30034 | -3.39191 | 5191 ft | 217 kts | 336° |
| 2026-04-17 10:23 | 40.31282 | -3.40183 | 5140 ft | 206 kts | 321° |
| 2026-04-17 10:23 | 40.32406 | -3.41319 | 5109 ft | 199 kts | 321° |
| 2026-04-17 10:23 | 40.33458 | -3.42381 | 5043 ft | 185 kts | 321° |
| 2026-04-17 10:23 | 40.34463 | -3.43392 | 4834 ft | 180 kts | 320° |
| 2026-04-17 10:24 | 40.35434 | -3.44378 | 4613 ft | 177 kts | 320° |
| 2026-04-17 10:24 | 40.36409 | -3.45364 | 4372 ft | 174 kts | 321° |
| 2026-04-17 10:24 | 40.37358 | -3.46324 | 4153 ft | 169 kts | 320° |
| 2026-04-17 10:24 | 40.38249 | -3.47229 | 3912 ft | 161 kts | 322° |
| 2026-04-17 10:25 | 40.39138 | -3.48126 | 3711 ft | 161 kts | 321° |
| 2026-04-17 10:25 | 40.40038 | -3.49027 | 3557 ft | 161 kts | 322° |
| 2026-04-17 10:25 | 40.40915 | -3.49921 | 3378 ft | 160 kts | 321° |
| 2026-04-17 10:25 | 40.41788 | -3.50806 | 3116 ft | 157 kts | 322° |
| 2026-04-17 10:26 | 40.42653 | -3.51682 | 2891 ft | 153 kts | 322° |
| 2026-04-17 10:26 | 40.43475 | -3.52515 | 2673 ft | 151 kts | 322° |
| 2026-04-17 10:26 | 40.44309 | -3.53362 | 2479 ft | 152 kts | 322° |
| 2026-04-17 10:26 | 40.45154 | -3.54217 | 2268 ft | 154 kts | 322° |
| 2026-04-17 10:27 | 40.46003 | -3.55077 | 2048 ft | 154 kts | 322° |
| 2026-04-17 10:27 | 40.46819 | -3.55906 | 1969 ft | 132 kts | 322° |
| 2026-04-17 10:27 | 40.47399 | -3.56493 | 1991 ft | 83 kts | 322° |
| 2026-04-17 10:27 | 40.47745 | -3.56846 | 1994 ft | 50 kts | 322° |
| 2026-04-17 10:28 | 40.47983 | -3.57088 | 2002 ft | 32 kts | 322° |
| 2026-04-17 10:28 | 40.48095 | -3.57219 | 2006 ft | 20 kts | 310° |
| 2026-04-17 10:28 | 40.48149 | -3.57345 | 2002 ft | 10 kts | 294° |
| 2026-04-17 10:28 | 40.48174 | -3.57432 | 2003 ft | 10 kts | 278° |
| 2026-04-17 10:29 | 40.48133 | -3.57498 | 2001 ft | 11 kts | 179° |
| 2026-04-17 10:29 | 40.48067 | -3.57443 | 2001 ft | 12 kts | 142° |
| 2026-04-17 10:29 | 40.48002 | -3.57376 | 2003 ft | 12 kts | 142° |
| 2026-04-17 10:29 | 40.47934 | -3.57306 | 2004 ft | 13 kts | 142° |
| 2026-04-17 10:30 | 40.47853 | -3.57224 | 2002 ft | 17 kts | 142° |
| 2026-04-17 10:30 | 40.47749 | -3.57118 | 1999 ft | 21 kts | 142° |
| 2026-04-17 10:30 | 40.47623 | -3.56991 | 1995 ft | 25 kts | 142° |
| 2026-04-17 10:30 | 40.47479 | -3.56845 | 1991 ft | 26 kts | 142° |
| 2026-04-17 10:31 | 40.47348 | -3.56711 | 1987 ft | 22 kts | 142° |
| 2026-04-17 10:31 | 40.47236 | -3.56596 | 1982 ft | 20 kts | 142° |
| 2026-04-17 10:31 | 40.47133 | -3.56501 | 1982 ft | 19 kts | 150° |
| 2026-04-17 10:31 | 40.47001 | -3.56452 | 1976 ft | 20 kts | 176° |
| 2026-04-17 10:32 | 40.46868 | -3.56459 | 1975 ft | 19 kts | 183° |
| 2026-04-17 10:32 | 40.46727 | -3.56469 | 1974 ft | 22 kts | 183° |
| 2026-04-17 10:32 | 40.46570 | -3.56481 | 1973 ft | 22 kts | 183° |
| 2026-04-17 10:32 | 40.46432 | -3.56492 | 1972 ft | 16 kts | 183° |
| 2026-04-17 10:33 | 40.46341 | -3.56499 | 1973 ft | 9 kts | 183° |
| 2026-04-17 10:33 | 40.46297 | -3.56545 | 1975 ft | 9 kts | 258° |
| 2026-04-17 10:33 | 40.46296 | -3.56619 | 1971 ft | 8 kts | 270° |
| 2026-04-17 10:33 | 40.46296 | -3.56683 | 1976 ft | 6 kts | 270° |
| 2026-04-17 10:34 | 40.46304 | -3.56735 | 1971 ft | 5 kts | 299° |
| 2026-04-17 10:34 | 40.46330 | -3.56754 | 1971 ft | 4 kts | 346° |
| 2026-04-17 10:34 | 40.46348 | -3.56770 | 1971 ft | 4 kts | 309° |
| 2026-04-17 10:34 | 40.46361 | -3.56805 | 1974 ft | 4 kts | 293° |
| 2026-04-17 10:35 | 40.46371 | -3.56838 | 1972 ft | 4 kts | 292° |
| 2026-04-17 10:35 | 40.46375 | -3.56849 | 1972 ft | 0 kts | 292° |